sensor_id;sensor_type;location;lat;lon;timestamp;temperature;humidity
4390;DHT22;2209;48.982;8.406;2023-07-13T00:00:33;25.30;82.10
4390;DHT22;2209;48.982;8.406;2023-07-13T00:02:55;25.30;82.20
4390;DHT22;2209;48.982;8.406;2023-07-13T00:05:17;25.30;82.30
4390;DHT22;2209;48.982;8.406;2023-07-13T00:07:40;25.30;82.30
4390;DHT22;2209;48.982;8.406;2023-07-13T00:10:05;25.30;82.40
4390;DHT22;2209;48.982;8.406;2023-07-13T00:12:30;25.20;82.30
4390;DHT22;2209;48.982;8.406;2023-07-13T00:14:52;25.30;82.50
4390;DHT22;2209;48.982;8.406;2023-07-13T00:17:15;25.30;82.50
4390;DHT22;2209;48.982;8.406;2023-07-13T00:19:38;25.20;82.50
4390;DHT22;2209;48.982;8.406;2023-07-13T00:22:00;25.20;82.50
4390;DHT22;2209;48.982;8.406;2023-07-13T00:24:22;25.10;82.40
4390;DHT22;2209;48.982;8.406;2023-07-13T00:26:46;25.10;82.40
4390;DHT22;2209;48.982;8.406;2023-07-13T00:29:09;25.10;82.40
4390;DHT22;2209;48.982;8.406;2023-07-13T00:31:31;25.10;82.30
4390;DHT22;2209;48.982;8.406;2023-07-13T00:33:54;25.10;82.30
4390;DHT22;2209;48.982;8.406;2023-07-13T00:36:17;25.10;82.20
4390;DHT22;2209;48.982;8.406;2023-07-13T00:38:39;25.10;82.30
4390;DHT22;2209;48.982;8.406;2023-07-13T00:41:03;25.00;82.10
4390;DHT22;2209;48.982;8.406;2023-07-13T00:43:28;25.00;82.10
4390;DHT22;2209;48.982;8.406;2023-07-13T00:46:13;25.00;82.00
4390;DHT22;2209;48.982;8.406;2023-07-13T00:48:36;25.00;81.90
4390;DHT22;2209;48.982;8.406;2023-07-13T00:51:00;25.00;81.80
4390;DHT22;2209;48.982;8.406;2023-07-13T00:53:25;24.90;81.60
4390;DHT22;2209;48.982;8.406;2023-07-13T00:55:50;24.90;81.50
4390;DHT22;2209;48.982;8.406;2023-07-13T00:58:13;24.90;81.40
4390;DHT22;2209;48.982;8.406;2023-07-13T01:00:39;24.90;81.30
4390;DHT22;2209;48.982;8.406;2023-07-13T01:03:03;24.90;81.30
4390;DHT22;2209;48.982;8.406;2023-07-13T01:05:25;24.80;81.20
4390;DHT22;2209;48.982;8.406;2023-07-13T01:07:50;24.80;81.20
4390;DHT22;2209;48.982;8.406;2023-07-13T01:10:14;24.80;81.10
4390;DHT22;2209;48.982;8.406;2023-07-13T01:12:36;24.80;81.00
4390;DHT22;2209;48.982;8.406;2023-07-13T01:15:00;24.80;80.90
4390;DHT22;2209;48.982;8.406;2023-07-13T01:17:24;24.80;80.80
4390;DHT22;2209;48.982;8.406;2023-07-13T01:19:47;24.80;80.80
4390;DHT22;2209;48.982;8.406;2023-07-13T01:22:12;24.80;80.60
4390;DHT22;2209;48.982;8.406;2023-07-13T01:24:35;24.80;80.30
4390;DHT22;2209;48.982;8.406;2023-07-13T01:26:58;24.80;80.00
4390;DHT22;2209;48.982;8.406;2023-07-13T01:29:20;24.80;79.90
4390;DHT22;2209;48.982;8.406;2023-07-13T01:31:43;24.70;79.70
4390;DHT22;2209;48.982;8.406;2023-07-13T01:34:06;24.70;79.50
4390;DHT22;2209;48.982;8.406;2023-07-13T01:36:29;24.70;79.40
4390;DHT22;2209;48.982;8.406;2023-07-13T01:38:53;24.70;79.60
4390;DHT22;2209;48.982;8.406;2023-07-13T01:41:16;24.70;79.70
4390;DHT22;2209;48.982;8.406;2023-07-13T01:43:38;24.70;79.70
4390;DHT22;2209;48.982;8.406;2023-07-13T01:46:01;24.60;79.70
4390;DHT22;2209;48.982;8.406;2023-07-13T01:48:23;24.60;79.70
4390;DHT22;2209;48.982;8.406;2023-07-13T01:50:46;24.60;79.90
4390;DHT22;2209;48.982;8.406;2023-07-13T01:53:09;24.60;80.00
4390;DHT22;2209;48.982;8.406;2023-07-13T01:55:34;24.60;80.00
4390;DHT22;2209;48.982;8.406;2023-07-13T01:57:57;24.50;80.10
4390;DHT22;2209;48.982;8.406;2023-07-13T02:00:19;24.50;80.30
4390;DHT22;2209;48.982;8.406;2023-07-13T02:02:42;24.50;80.60
4390;DHT22;2209;48.982;8.406;2023-07-13T02:05:06;24.50;80.70
4390;DHT22;2209;48.982;8.406;2023-07-13T02:07:28;24.50;80.80
4390;DHT22;2209;48.982;8.406;2023-07-13T02:09:51;24.50;81.10
4390;DHT22;2209;48.982;8.406;2023-07-13T02:12:15;24.50;81.40
4390;DHT22;2209;48.982;8.406;2023-07-13T02:14:37;24.40;81.70
4390;DHT22;2209;48.982;8.406;2023-07-13T02:16:59;24.40;82.00
4390;DHT22;2209;48.982;8.406;2023-07-13T02:19:22;24.40;82.20
4390;DHT22;2209;48.982;8.406;2023-07-13T02:21:44;24.30;82.10
4390;DHT22;2209;48.982;8.406;2023-07-13T02:24:07;24.30;81.90
4390;DHT22;2209;48.982;8.406;2023-07-13T02:26:29;24.30;81.80
4390;DHT22;2209;48.982;8.406;2023-07-13T02:28:53;24.30;81.60
4390;DHT22;2209;48.982;8.406;2023-07-13T02:31:16;24.30;81.60
4390;DHT22;2209;48.982;8.406;2023-07-13T02:33:38;24.30;81.80
4390;DHT22;2209;48.982;8.406;2023-07-13T02:36:01;24.20;81.90
4390;DHT22;2209;48.982;8.406;2023-07-13T02:38:24;24.20;82.00
4390;DHT22;2209;48.982;8.406;2023-07-13T02:40:47;24.20;82.10
4390;DHT22;2209;48.982;8.406;2023-07-13T02:43:09;24.20;82.20
4390;DHT22;2209;48.982;8.406;2023-07-13T02:45:33;24.20;82.40
4390;DHT22;2209;48.982;8.406;2023-07-13T02:47:55;24.10;82.50
4390;DHT22;2209;48.982;8.406;2023-07-13T02:50:18;24.10;82.70
4390;DHT22;2209;48.982;8.406;2023-07-13T02:52:40;24.10;83.40
4390;DHT22;2209;48.982;8.406;2023-07-13T02:55:03;24.00;84.00
4390;DHT22;2209;48.982;8.406;2023-07-13T02:57:26;24.00;84.00
4390;DHT22;2209;48.982;8.406;2023-07-13T02:59:49;23.90;83.70
4390;DHT22;2209;48.982;8.406;2023-07-13T03:02:13;23.90;83.30
4390;DHT22;2209;48.982;8.406;2023-07-13T03:04:35;23.90;83.20
4390;DHT22;2209;48.982;8.406;2023-07-13T03:06:58;23.90;83.00
4390;DHT22;2209;48.982;8.406;2023-07-13T03:09:20;23.90;83.10
4390;DHT22;2209;48.982;8.406;2023-07-13T03:11:43;23.90;83.50
4390;DHT22;2209;48.982;8.406;2023-07-13T03:14:05;23.80;83.90
4390;DHT22;2209;48.982;8.406;2023-07-13T03:16:28;23.80;85.00
4390;DHT22;2209;48.982;8.406;2023-07-13T03:18:51;23.70;85.60
4390;DHT22;2209;48.982;8.406;2023-07-13T03:21:14;23.70;86.10
4390;DHT22;2209;48.982;8.406;2023-07-13T03:23:37;23.60;86.10
4390;DHT22;2209;48.982;8.406;2023-07-13T03:26:04;23.60;86.10
4390;DHT22;2209;48.982;8.406;2023-07-13T03:28:27;23.60;86.00
4390;DHT22;2209;48.982;8.406;2023-07-13T03:30:52;23.60;86.00
4390;DHT22;2209;48.982;8.406;2023-07-13T03:33:20;23.60;86.00
4390;DHT22;2209;48.982;8.406;2023-07-13T03:35:44;23.60;86.10
4390;DHT22;2209;48.982;8.406;2023-07-13T03:38:07;23.50;86.20
4390;DHT22;2209;48.982;8.406;2023-07-13T03:40:29;23.60;86.40
4390;DHT22;2209;48.982;8.406;2023-07-13T03:42:51;23.50;86.50
4390;DHT22;2209;48.982;8.406;2023-07-13T03:45:14;23.60;86.70
4390;DHT22;2209;48.982;8.406;2023-07-13T03:47:36;23.50;86.50
4390;DHT22;2209;48.982;8.406;2023-07-13T03:49:59;23.50;86.40
4390;DHT22;2209;48.982;8.406;2023-07-13T03:52:23;23.50;86.40
4390;DHT22;2209;48.982;8.406;2023-07-13T03:54:45;23.40;86.30
4390;DHT22;2209;48.982;8.406;2023-07-13T03:57:08;23.40;86.30
4390;DHT22;2209;48.982;8.406;2023-07-13T03:59:30;23.40;86.20
4390;DHT22;2209;48.982;8.406;2023-07-13T04:01:53;23.40;86.40
4390;DHT22;2209;48.982;8.406;2023-07-13T04:04:16;23.30;87.10
4390;DHT22;2209;48.982;8.406;2023-07-13T04:06:38;23.30;87.80
4390;DHT22;2209;48.982;8.406;2023-07-13T04:09:04;23.20;88.00
4390;DHT22;2209;48.982;8.406;2023-07-13T04:11:28;23.20;88.40
4390;DHT22;2209;48.982;8.406;2023-07-13T04:13:52;23.10;88.70
4390;DHT22;2209;48.982;8.406;2023-07-13T04:16:15;23.10;89.00
4390;DHT22;2209;48.982;8.406;2023-07-13T04:18:38;23.10;89.30
4390;DHT22;2209;48.982;8.406;2023-07-13T04:21:02;23.00;89.30
4390;DHT22;2209;48.982;8.406;2023-07-13T04:23:24;22.90;89.30
4390;DHT22;2209;48.982;8.406;2023-07-13T04:25:49;22.80;89.60
4390;DHT22;2209;48.982;8.406;2023-07-13T04:28:13;22.80;90.00
4390;DHT22;2209;48.982;8.406;2023-07-13T04:30:36;22.80;90.20
4390;DHT22;2209;48.982;8.406;2023-07-13T04:32:58;22.80;90.30
4390;DHT22;2209;48.982;8.406;2023-07-13T04:35:21;22.80;90.40
4390;DHT22;2209;48.982;8.406;2023-07-13T04:37:43;22.80;90.30
4390;DHT22;2209;48.982;8.406;2023-07-13T04:40:07;22.80;90.20
4390;DHT22;2209;48.982;8.406;2023-07-13T04:42:34;22.80;90.30
4390;DHT22;2209;48.982;8.406;2023-07-13T04:44:57;22.80;90.40
4390;DHT22;2209;48.982;8.406;2023-07-13T04:47:20;22.80;90.40
4390;DHT22;2209;48.982;8.406;2023-07-13T04:49:42;22.80;90.30
4390;DHT22;2209;48.982;8.406;2023-07-13T04:52:06;22.80;90.20
4390;DHT22;2209;48.982;8.406;2023-07-13T04:54:29;22.80;90.00
4390;DHT22;2209;48.982;8.406;2023-07-13T04:56:52;22.90;90.00
4390;DHT22;2209;48.982;8.406;2023-07-13T04:59:17;22.90;89.40
4390;DHT22;2209;48.982;8.406;2023-07-13T05:01:40;22.90;88.90
4390;DHT22;2209;48.982;8.406;2023-07-13T05:04:03;22.90;88.80
4390;DHT22;2209;48.982;8.406;2023-07-13T05:06:31;22.90;89.20
4390;DHT22;2209;48.982;8.406;2023-07-13T05:08:56;22.90;89.70
4390;DHT22;2209;48.982;8.406;2023-07-13T05:11:21;22.90;90.00
4390;DHT22;2209;48.982;8.406;2023-07-13T05:13:44;22.90;89.80
4390;DHT22;2209;48.982;8.406;2023-07-13T05:16:09;22.90;90.20
4390;DHT22;2209;48.982;8.406;2023-07-13T05:18:31;22.90;89.60
4390;DHT22;2209;48.982;8.406;2023-07-13T05:21:02;22.90;89.50
4390;DHT22;2209;48.982;8.406;2023-07-13T05:23:25;22.90;90.10
4390;DHT22;2209;48.982;8.406;2023-07-13T05:25:48;22.80;89.70
4390;DHT22;2209;48.982;8.406;2023-07-13T05:28:11;22.80;90.00
4390;DHT22;2209;48.982;8.406;2023-07-13T05:30:33;22.80;90.00
4390;DHT22;2209;48.982;8.406;2023-07-13T05:32:58;22.80;90.00
4390;DHT22;2209;48.982;8.406;2023-07-13T05:35:20;22.80;90.00
4390;DHT22;2209;48.982;8.406;2023-07-13T05:37:43;22.80;90.10
4390;DHT22;2209;48.982;8.406;2023-07-13T05:40:06;22.70;90.20
4390;DHT22;2209;48.982;8.406;2023-07-13T05:42:29;22.70;90.30
4390;DHT22;2209;48.982;8.406;2023-07-13T05:44:53;22.70;90.30
4390;DHT22;2209;48.982;8.406;2023-07-13T05:47:16;22.70;90.40
4390;DHT22;2209;48.982;8.406;2023-07-13T05:49:41;22.70;90.50
4390;DHT22;2209;48.982;8.406;2023-07-13T05:52:04;22.70;90.60
4390;DHT22;2209;48.982;8.406;2023-07-13T05:54:27;22.70;90.70
4390;DHT22;2209;48.982;8.406;2023-07-13T05:56:51;22.70;90.80
4390;DHT22;2209;48.982;8.406;2023-07-13T05:59:14;22.60;90.70
4390;DHT22;2209;48.982;8.406;2023-07-13T06:01:37;22.60;90.60
4390;DHT22;2209;48.982;8.406;2023-07-13T06:04:00;22.60;90.40
4390;DHT22;2209;48.982;8.406;2023-07-13T06:06:24;22.60;90.20
4390;DHT22;2209;48.982;8.406;2023-07-13T06:08:47;22.60;90.20
4390;DHT22;2209;48.982;8.406;2023-07-13T06:11:13;22.60;90.20
4390;DHT22;2209;48.982;8.406;2023-07-13T06:13:36;22.60;90.30
4390;DHT22;2209;48.982;8.406;2023-07-13T06:15:59;22.60;90.40
4390;DHT22;2209;48.982;8.406;2023-07-13T06:18:25;22.70;90.30
4390;DHT22;2209;48.982;8.406;2023-07-13T06:20:48;22.70;90.40
4390;DHT22;2209;48.982;8.406;2023-07-13T06:23:12;22.70;90.50
4390;DHT22;2209;48.982;8.406;2023-07-13T06:25:36;22.70;90.60
4390;DHT22;2209;48.982;8.406;2023-07-13T06:27:59;22.70;90.60
4390;DHT22;2209;48.982;8.406;2023-07-13T06:30:23;22.70;90.60
4390;DHT22;2209;48.982;8.406;2023-07-13T06:32:47;22.70;90.60
4390;DHT22;2209;48.982;8.406;2023-07-13T06:35:11;22.60;90.50
4390;DHT22;2209;48.982;8.406;2023-07-13T06:37:34;22.70;90.40
4390;DHT22;2209;48.982;8.406;2023-07-13T06:39:58;22.70;90.30
4390;DHT22;2209;48.982;8.406;2023-07-13T06:42:21;22.70;90.20
4390;DHT22;2209;48.982;8.406;2023-07-13T06:44:44;22.60;90.00
4390;DHT22;2209;48.982;8.406;2023-07-13T06:47:07;22.60;89.80
4390;DHT22;2209;48.982;8.406;2023-07-13T06:49:29;22.60;89.40
4390;DHT22;2209;48.982;8.406;2023-07-13T06:51:52;22.60;89.40
4390;DHT22;2209;48.982;8.406;2023-07-13T06:54:15;22.50;89.40
4390;DHT22;2209;48.982;8.406;2023-07-13T06:56:40;22.50;89.60
4390;DHT22;2209;48.982;8.406;2023-07-13T06:59:02;22.50;89.80
4390;DHT22;2209;48.982;8.406;2023-07-13T07:01:25;22.50;89.80
4390;DHT22;2209;48.982;8.406;2023-07-13T07:03:48;22.50;90.00
4390;DHT22;2209;48.982;8.406;2023-07-13T07:06:13;22.60;90.10
4390;DHT22;2209;48.982;8.406;2023-07-13T07:08:37;22.60;90.20
4390;DHT22;2209;48.982;8.406;2023-07-13T07:11:02;22.60;90.40
4390;DHT22;2209;48.982;8.406;2023-07-13T07:13:52;22.60;90.40
4390;DHT22;2209;48.982;8.406;2023-07-13T07:16:15;22.60;90.50
4390;DHT22;2209;48.982;8.406;2023-07-13T07:18:38;22.60;90.40
4390;DHT22;2209;48.982;8.406;2023-07-13T07:21:01;22.60;90.30
4390;DHT22;2209;48.982;8.406;2023-07-13T07:23:24;22.60;90.30
4390;DHT22;2209;48.982;8.406;2023-07-13T07:25:47;22.60;90.10
4390;DHT22;2209;48.982;8.406;2023-07-13T07:28:12;22.60;90.00
4390;DHT22;2209;48.982;8.406;2023-07-13T07:30:41;22.60;90.00
4390;DHT22;2209;48.982;8.406;2023-07-13T07:33:03;22.60;90.00
4390;DHT22;2209;48.982;8.406;2023-07-13T07:35:26;22.60;90.00
4390;DHT22;2209;48.982;8.406;2023-07-13T07:37:49;22.60;89.90
4390;DHT22;2209;48.982;8.406;2023-07-13T07:40:12;22.60;89.90
4390;DHT22;2209;48.982;8.406;2023-07-13T07:42:37;22.60;89.80
4390;DHT22;2209;48.982;8.406;2023-07-13T07:45:00;22.60;89.80
4390;DHT22;2209;48.982;8.406;2023-07-13T07:47:24;22.60;89.70
4390;DHT22;2209;48.982;8.406;2023-07-13T07:49:46;22.60;89.60
4390;DHT22;2209;48.982;8.406;2023-07-13T07:52:08;22.60;89.50
4390;DHT22;2209;48.982;8.406;2023-07-13T07:54:31;22.60;89.40
4390;DHT22;2209;48.982;8.406;2023-07-13T07:56:53;22.70;89.30
4390;DHT22;2209;48.982;8.406;2023-07-13T07:59:15;22.70;88.90
4390;DHT22;2209;48.982;8.406;2023-07-13T08:01:37;22.70;88.60
4390;DHT22;2209;48.982;8.406;2023-07-13T08:04:04;22.60;88.40
4390;DHT22;2209;48.982;8.406;2023-07-13T08:06:26;22.60;88.60
4390;DHT22;2209;48.982;8.406;2023-07-13T08:08:50;22.60;88.80
4390;DHT22;2209;48.982;8.406;2023-07-13T08:11:17;22.60;88.80
4390;DHT22;2209;48.982;8.406;2023-07-13T08:13:39;22.60;89.20
4390;DHT22;2209;48.982;8.406;2023-07-13T08:16:04;22.60;87.90
4390;DHT22;2209;48.982;8.406;2023-07-13T08:18:26;22.60;87.70
4390;DHT22;2209;48.982;8.406;2023-07-13T08:20:54;22.60;87.20
4390;DHT22;2209;48.982;8.406;2023-07-13T08:23:17;22.60;86.80
4390;DHT22;2209;48.982;8.406;2023-07-13T08:25:40;22.60;86.40
4390;DHT22;2209;48.982;8.406;2023-07-13T08:28:02;22.60;86.00
4390;DHT22;2209;48.982;8.406;2023-07-13T08:30:24;22.60;84.90
4390;DHT22;2209;48.982;8.406;2023-07-13T08:32:47;22.60;83.60
4390;DHT22;2209;48.982;8.406;2023-07-13T08:35:10;22.60;82.70
4390;DHT22;2209;48.982;8.406;2023-07-13T08:37:34;22.60;80.90
4390;DHT22;2209;48.982;8.406;2023-07-13T08:39:56;22.60;80.90
4390;DHT22;2209;48.982;8.406;2023-07-13T08:42:26;22.50;80.70
4390;DHT22;2209;48.982;8.406;2023-07-13T08:45:04;22.50;80.70
4390;DHT22;2209;48.982;8.406;2023-07-13T08:47:32;22.50;80.50
4390;DHT22;2209;48.982;8.406;2023-07-13T08:49:56;22.60;80.30
4390;DHT22;2209;48.982;8.406;2023-07-13T08:52:29;22.60;80.00
4390;DHT22;2209;48.982;8.406;2023-07-13T08:54:56;22.60;79.70
4390;DHT22;2209;48.982;8.406;2023-07-13T08:57:21;22.60;79.40
4390;DHT22;2209;48.982;8.406;2023-07-13T08:59:45;22.60;78.90
4390;DHT22;2209;48.982;8.406;2023-07-13T09:02:23;22.60;78.70
4390;DHT22;2209;48.982;8.406;2023-07-13T09:04:50;22.70;78.50
4390;DHT22;2209;48.982;8.406;2023-07-13T09:07:23;22.60;78.20
4390;DHT22;2209;48.982;8.406;2023-07-13T09:09:58;22.70;77.90
4390;DHT22;2209;48.982;8.406;2023-07-13T09:12:25;22.70;77.20
4390;DHT22;2209;48.982;8.406;2023-07-13T09:14:52;22.70;76.60
4390;DHT22;2209;48.982;8.406;2023-07-13T09:17:17;22.70;76.60
4390;DHT22;2209;48.982;8.406;2023-07-13T09:19:40;22.70;76.50
4390;DHT22;2209;48.982;8.406;2023-07-13T09:22:04;22.70;76.50
4390;DHT22;2209;48.982;8.406;2023-07-13T09:24:36;22.70;76.50
4390;DHT22;2209;48.982;8.406;2023-07-13T09:27:00;22.70;76.50
4390;DHT22;2209;48.982;8.406;2023-07-13T09:29:28;22.70;76.70
4390;DHT22;2209;48.982;8.406;2023-07-13T09:31:55;22.70;76.80
4390;DHT22;2209;48.982;8.406;2023-07-13T09:34:19;22.70;76.70
4390;DHT22;2209;48.982;8.406;2023-07-13T09:36:41;22.70;76.80
4390;DHT22;2209;48.982;8.406;2023-07-13T09:39:12;22.70;76.60
4390;DHT22;2209;48.982;8.406;2023-07-13T09:41:41;22.70;76.60
4390;DHT22;2209;48.982;8.406;2023-07-13T09:44:11;22.70;76.80
4390;DHT22;2209;48.982;8.406;2023-07-13T09:46:33;22.70;77.00
4390;DHT22;2209;48.982;8.406;2023-07-13T09:48:56;22.80;76.90
4390;DHT22;2209;48.982;8.406;2023-07-13T09:51:18;22.70;76.50
4390;DHT22;2209;48.982;8.406;2023-07-13T09:53:41;22.80;76.70
4390;DHT22;2209;48.982;8.406;2023-07-13T09:56:18;22.70;76.50
4390;DHT22;2209;48.982;8.406;2023-07-13T09:58:40;22.70;76.60
4390;DHT22;2209;48.982;8.406;2023-07-13T10:01:06;22.80;76.70
4390;DHT22;2209;48.982;8.406;2023-07-13T10:03:31;22.80;76.70
4390;DHT22;2209;48.982;8.406;2023-07-13T10:06:09;22.80;76.70
4390;DHT22;2209;48.982;8.406;2023-07-13T10:08:35;22.80;76.30
4390;DHT22;2209;48.982;8.406;2023-07-13T10:10:59;22.90;76.00
4390;DHT22;2209;48.982;8.406;2023-07-13T10:13:29;22.90;75.60
4390;DHT22;2209;48.982;8.406;2023-07-13T10:19:17;22.90;74.30
4390;DHT22;2209;48.982;8.406;2023-07-13T10:21:50;22.80;74.20
4390;DHT22;2209;48.982;8.406;2023-07-13T10:24:21;22.80;73.90
4390;DHT22;2209;48.982;8.406;2023-07-13T10:26:50;22.80;73.90
4390;DHT22;2209;48.982;8.406;2023-07-13T10:29:17;22.80;74.80
4390;DHT22;2209;48.982;8.406;2023-07-13T10:31:41;22.90;75.20
4390;DHT22;2209;48.982;8.406;2023-07-13T10:34:07;22.90;75.30
4390;DHT22;2209;48.982;8.406;2023-07-13T10:36:37;22.90;75.20
4390;DHT22;2209;48.982;8.406;2023-07-13T10:39:04;22.90;75.00
4390;DHT22;2209;48.982;8.406;2023-07-13T10:41:29;22.90;75.40
4390;DHT22;2209;48.982;8.406;2023-07-13T10:43:55;22.90;75.80
4390;DHT22;2209;48.982;8.406;2023-07-13T10:46:22;22.90;75.10
4390;DHT22;2209;48.982;8.406;2023-07-13T10:48:48;22.90;74.70
4390;DHT22;2209;48.982;8.406;2023-07-13T10:51:14;23.00;74.80
4390;DHT22;2209;48.982;8.406;2023-07-13T10:53:39;23.00;74.00
4390;DHT22;2209;48.982;8.406;2023-07-13T10:56:04;22.90;72.60
4390;DHT22;2209;48.982;8.406;2023-07-13T10:58:33;23.00;73.20
4390;DHT22;2209;48.982;8.406;2023-07-13T11:01:01;23.00;73.40
4390;DHT22;2209;48.982;8.406;2023-07-13T11:03:27;23.00;73.60
4390;DHT22;2209;48.982;8.406;2023-07-13T11:05:51;23.00;73.40
4390;DHT22;2209;48.982;8.406;2023-07-13T11:08:33;23.00;73.20
4390;DHT22;2209;48.982;8.406;2023-07-13T11:10:59;23.00;73.40
4390;DHT22;2209;48.982;8.406;2023-07-13T11:13:56;23.00;73.60
4390;DHT22;2209;48.982;8.406;2023-07-13T11:16:44;23.10;74.10
4390;DHT22;2209;48.982;8.406;2023-07-13T11:19:29;23.10;74.40
4390;DHT22;2209;48.982;8.406;2023-07-13T11:22:11;23.10;74.40
4390;DHT22;2209;48.982;8.406;2023-07-13T11:24:53;23.10;74.20
4390;DHT22;2209;48.982;8.406;2023-07-13T11:27:39;23.10;74.30
4390;DHT22;2209;48.982;8.406;2023-07-13T11:30:31;23.20;75.40
4390;DHT22;2209;48.982;8.406;2023-07-13T11:33:04;23.20;74.70
4390;DHT22;2209;48.982;8.406;2023-07-13T11:35:29;23.20;73.90
4390;DHT22;2209;48.982;8.406;2023-07-13T11:37:52;23.20;73.40
4390;DHT22;2209;48.982;8.406;2023-07-13T11:40:15;23.20;72.70
4390;DHT22;2209;48.982;8.406;2023-07-13T11:42:39;23.20;71.60
4390;DHT22;2209;48.982;8.406;2023-07-13T11:45:01;23.20;71.50
4390;DHT22;2209;48.982;8.406;2023-07-13T11:47:23;23.20;71.90
4390;DHT22;2209;48.982;8.406;2023-07-13T11:49:49;23.30;72.40
4390;DHT22;2209;48.982;8.406;2023-07-13T11:52:15;23.30;72.30
4390;DHT22;2209;48.982;8.406;2023-07-13T11:54:46;23.30;72.00
4390;DHT22;2209;48.982;8.406;2023-07-13T11:57:23;23.40;71.20
4390;DHT22;2209;48.982;8.406;2023-07-13T11:59:47;23.40;71.10
4390;DHT22;2209;48.982;8.406;2023-07-13T12:02:16;23.50;70.80
4390;DHT22;2209;48.982;8.406;2023-07-13T12:04:42;23.40;70.60
4390;DHT22;2209;48.982;8.406;2023-07-13T12:07:07;23.50;71.10
4390;DHT22;2209;48.982;8.406;2023-07-13T12:09:30;23.40;70.70
4390;DHT22;2209;48.982;8.406;2023-07-13T12:11:52;23.50;71.00
4390;DHT22;2209;48.982;8.406;2023-07-13T12:14:15;23.50;71.40
4390;DHT22;2209;48.982;8.406;2023-07-13T12:16:39;23.50;71.10
4390;DHT22;2209;48.982;8.406;2023-07-13T12:19:03;23.50;71.20
4390;DHT22;2209;48.982;8.406;2023-07-13T12:21:30;23.60;71.20
4390;DHT22;2209;48.982;8.406;2023-07-13T12:23:53;23.50;70.70
4390;DHT22;2209;48.982;8.406;2023-07-13T12:26:16;23.60;71.00
4390;DHT22;2209;48.982;8.406;2023-07-13T12:28:44;23.60;70.80
4390;DHT22;2209;48.982;8.406;2023-07-13T12:31:24;23.60;71.00
4390;DHT22;2209;48.982;8.406;2023-07-13T12:33:48;23.70;70.90
4390;DHT22;2209;48.982;8.406;2023-07-13T12:36:12;23.70;71.00
4390;DHT22;2209;48.982;8.406;2023-07-13T12:38:35;23.70;70.30
4390;DHT22;2209;48.982;8.406;2023-07-13T12:40:57;23.70;69.90
4390;DHT22;2209;48.982;8.406;2023-07-13T12:43:20;23.70;69.50
4390;DHT22;2209;48.982;8.406;2023-07-13T12:45:55;23.70;69.10
4390;DHT22;2209;48.982;8.406;2023-07-13T12:48:17;23.80;68.60
4390;DHT22;2209;48.982;8.406;2023-07-13T12:50:45;23.80;67.90
4390;DHT22;2209;48.982;8.406;2023-07-13T12:53:13;23.80;67.50
4390;DHT22;2209;48.982;8.406;2023-07-13T12:55:42;23.80;67.60
4390;DHT22;2209;48.982;8.406;2023-07-13T12:58:09;23.90;67.70
4390;DHT22;2209;48.982;8.406;2023-07-13T13:00:33;23.90;67.60
4390;DHT22;2209;48.982;8.406;2023-07-13T13:03:01;23.90;67.80
4390;DHT22;2209;48.982;8.406;2023-07-13T13:05:26;23.90;68.30
4390;DHT22;2209;48.982;8.406;2023-07-13T13:07:50;23.90;68.70
4390;DHT22;2209;48.982;8.406;2023-07-13T13:10:12;24.00;68.30
4390;DHT22;2209;48.982;8.406;2023-07-13T13:12:35;24.00;68.10
4390;DHT22;2209;48.982;8.406;2023-07-13T13:14:57;24.10;67.60
4390;DHT22;2209;48.982;8.406;2023-07-13T13:17:21;24.10;67.20
4390;DHT22;2209;48.982;8.406;2023-07-13T13:19:45;24.10;67.50
4390;DHT22;2209;48.982;8.406;2023-07-13T13:22:08;24.10;68.40
4390;DHT22;2209;48.982;8.406;2023-07-13T13:24:31;24.20;68.70
4390;DHT22;2209;48.982;8.406;2023-07-13T13:26:54;24.20;68.70
4390;DHT22;2209;48.982;8.406;2023-07-13T13:29:20;24.20;68.10
4390;DHT22;2209;48.982;8.406;2023-07-13T13:31:44;24.20;67.50
4390;DHT22;2209;48.982;8.406;2023-07-13T13:34:09;24.30;66.60
4390;DHT22;2209;48.982;8.406;2023-07-13T13:36:31;24.30;67.20
4390;DHT22;2209;48.982;8.406;2023-07-13T13:38:53;24.40;66.70
4390;DHT22;2209;48.982;8.406;2023-07-13T13:41:17;24.50;66.40
4390;DHT22;2209;48.982;8.406;2023-07-13T13:43:39;24.50;66.40
4390;DHT22;2209;48.982;8.406;2023-07-13T13:46:11;24.50;66.20
4390;DHT22;2209;48.982;8.406;2023-07-13T13:48:36;24.50;65.80
4390;DHT22;2209;48.982;8.406;2023-07-13T13:50:59;24.50;65.70
4390;DHT22;2209;48.982;8.406;2023-07-13T13:53:21;24.60;66.10
4390;DHT22;2209;48.982;8.406;2023-07-13T13:55:44;24.60;66.30
4390;DHT22;2209;48.982;8.406;2023-07-13T13:58:09;24.60;65.60
4390;DHT22;2209;48.982;8.406;2023-07-13T14:00:31;24.60;65.30
4390;DHT22;2209;48.982;8.406;2023-07-13T14:02:53;24.70;65.40
4390;DHT22;2209;48.982;8.406;2023-07-13T14:05:23;24.70;65.70
4390;DHT22;2209;48.982;8.406;2023-07-13T14:07:46;24.80;65.70
4390;DHT22;2209;48.982;8.406;2023-07-13T14:10:12;24.80;65.60
4390;DHT22;2209;48.982;8.406;2023-07-13T14:12:35;24.80;65.60
4390;DHT22;2209;48.982;8.406;2023-07-13T14:14:59;24.80;65.30
4390;DHT22;2209;48.982;8.406;2023-07-13T14:17:23;24.80;65.60
4390;DHT22;2209;48.982;8.406;2023-07-13T14:19:45;24.80;66.50
4390;DHT22;2209;48.982;8.406;2023-07-13T14:22:08;24.80;66.30
4390;DHT22;2209;48.982;8.406;2023-07-13T14:24:30;24.90;65.50
4390;DHT22;2209;48.982;8.406;2023-07-13T14:26:52;25.00;65.00
4390;DHT22;2209;48.982;8.406;2023-07-13T14:29:16;25.10;65.40
4390;DHT22;2209;48.982;8.406;2023-07-13T14:31:40;25.20;65.10
4390;DHT22;2209;48.982;8.406;2023-07-13T14:34:02;25.30;64.30
4390;DHT22;2209;48.982;8.406;2023-07-13T14:36:27;25.40;64.70
4390;DHT22;2209;48.982;8.406;2023-07-13T14:38:50;25.30;65.60
4390;DHT22;2209;48.982;8.406;2023-07-13T14:41:12;25.40;66.00
4390;DHT22;2209;48.982;8.406;2023-07-13T14:43:34;25.50;64.80
4390;DHT22;2209;48.982;8.406;2023-07-13T14:45:56;25.50;63.40
4390;DHT22;2209;48.982;8.406;2023-07-13T14:48:22;25.50;63.50
4390;DHT22;2209;48.982;8.406;2023-07-13T14:50:44;25.50;63.50
4390;DHT22;2209;48.982;8.406;2023-07-13T14:53:09;25.50;63.40
4390;DHT22;2209;48.982;8.406;2023-07-13T14:55:32;25.60;63.90
4390;DHT22;2209;48.982;8.406;2023-07-13T14:57:54;25.60;63.80
4390;DHT22;2209;48.982;8.406;2023-07-13T15:00:20;25.60;63.10
4390;DHT22;2209;48.982;8.406;2023-07-13T15:02:45;25.60;63.20
4390;DHT22;2209;48.982;8.406;2023-07-13T15:05:15;25.70;63.30
4390;DHT22;2209;48.982;8.406;2023-07-13T15:07:38;25.70;63.80
4390;DHT22;2209;48.982;8.406;2023-07-13T15:10:00;25.70;64.10
4390;DHT22;2209;48.982;8.406;2023-07-13T15:12:22;25.80;64.50
4390;DHT22;2209;48.982;8.406;2023-07-13T15:14:44;25.90;64.70
4390;DHT22;2209;48.982;8.406;2023-07-13T15:17:18;25.90;64.30
4390;DHT22;2209;48.982;8.406;2023-07-13T15:19:44;25.90;64.00
4390;DHT22;2209;48.982;8.406;2023-07-13T15:22:08;26.00;63.70
4390;DHT22;2209;48.982;8.406;2023-07-13T15:24:33;26.10;63.70
4390;DHT22;2209;48.982;8.406;2023-07-13T15:26:55;26.10;63.60
4390;DHT22;2209;48.982;8.406;2023-07-13T15:29:17;26.20;63.70
4390;DHT22;2209;48.982;8.406;2023-07-13T15:31:40;26.20;63.00
4390;DHT22;2209;48.982;8.406;2023-07-13T15:34:08;26.20;62.40
4390;DHT22;2209;48.982;8.406;2023-07-13T15:36:31;26.20;62.40
4390;DHT22;2209;48.982;8.406;2023-07-13T15:38:55;26.20;62.60
4390;DHT22;2209;48.982;8.406;2023-07-13T15:41:19;26.10;62.40
4390;DHT22;2209;48.982;8.406;2023-07-13T15:43:43;26.10;62.70
4390;DHT22;2209;48.982;8.406;2023-07-13T15:46:05;26.20;63.20
4390;DHT22;2209;48.982;8.406;2023-07-13T15:48:28;26.10;63.40